LiveATC.Net - Listen to live air traffic control over the Internet! Contact LiveATC.net for advertising information


ICAO: CYQL  IATA: YQL   Airport: Lethbridge Airport
City: Lethbridge   State/Province: Alberta
Country: Canada   Continent: North America
CYQL METAR Weather: CYQL 230900Z AUTO 19019KT 9SM CLR 10/03 A2966 RMK SLP047 DENSITY ALT 3400FT
CYQL Flight Activity (FlightAware)
CYQL RDO/Misc
Feed Status: DOWN
Last heard on: 2014-08-14 20:42:03 (69 days 13 hours 21 minutes ago)
CYQL RDO/Misc Audio Archives
FacilityFrequency
Esso Unicom123.350
Integra Air Base130.850
Lethbridge RDO121.000


NOTICE

Unauthorized use prohibited. See LiveATC.net Terms of Service


Find LiveATC Audio Streams


Airport/ARTCC Code

Frequency
(e.g., 124.400, 128.75)
Site-wide search

Browse LiveATC Feeds
LiveATC Coverage Map
Top 50 LiveATC Feeds
Bad Weather Areas

LiveATC FAQ
Offer a LiveATC Feed
Contact LiveATC.net
Press Inquiries

LiveATC on iPhone
LiveATC on Android

LiveATC Mobile
(Mobile browser)

ATC Audio Archives
Interesting Recordings

LiveATC Forums


Home Page
About LiveATC.net
Make a Donation
LiveATC Bookstore

Terms of Use
Privacy Policy

ATC/Radar Sites
U.S. ARTCC Freqs
Canadian Air Freqs

AIRMETs/SIGMETs

FAA Airport Status
Nat'l Airspace Status
Arrival Demand Charts


Server Software By:
Icecast.org
Liquidsoap

Please make a donation to help us keep growing!